sensor_id;sensor_type;location;lat;lon;timestamp;P1;durP1;ratioP1;P2;durP2;ratioP2
49153;SDS011;49455;52.252;9.124;2022-09-09T06:52:42;7.05;;;2.83;;
49153;SDS011;49455;52.252;9.124;2022-09-09T06:57:46;4.93;;;2.40;;
49153;SDS011;49455;52.252;9.124;2022-09-09T07:02:51;5.95;;;2.00;;
49153;SDS011;49455;52.252;9.124;2022-09-09T07:07:52;4.53;;;2.10;;
49153;SDS011;49455;52.252;9.124;2022-09-09T07:12:54;10.88;;;2.53;;
49153;SDS011;49455;52.252;9.124;2022-09-09T07:18:00;5.88;;;2.40;;
49153;SDS011;49455;52.252;9.124;2022-09-09T07:23:01;7.88;;;2.67;;
49153;SDS011;49455;52.252;9.124;2022-09-09T07:28:02;5.88;;;2.50;;
49153;SDS011;49455;52.252;9.124;2022-09-09T07:33:03;5.60;;;2.50;;
49153;SDS011;49455;52.252;9.124;2022-09-09T07:38:04;5.68;;;2.80;;
49153;SDS011;49455;52.252;9.124;2022-09-09T07:43:05;11.68;;;2.10;;
49153;SDS011;49455;52.252;9.124;2022-09-09T07:48:05;9.75;;;2.80;;
49153;SDS011;49455;52.252;9.124;2022-09-09T07:53:06;6.75;;;2.10;;
49153;SDS011;49455;52.252;9.124;2022-09-09T07:58:07;5.75;;;2.47;;
49153;SDS011;49455;52.252;9.124;2022-09-09T08:03:07;5.50;;;2.13;;
49153;SDS011;49455;52.252;9.124;2022-09-09T08:08:08;6.40;;;2.58;;
49153;SDS011;49455;52.252;9.124;2022-09-09T08:13:08;5.82;;;2.20;;
49153;SDS011;49455;52.252;9.124;2022-09-09T08:18:09;5.35;;;2.20;;
49153;SDS011;49455;52.252;9.124;2022-09-09T08:23:10;6.30;;;2.00;;
49153;SDS011;49455;52.252;9.124;2022-09-09T08:28:10;6.07;;;2.05;;
49153;SDS011;49455;52.252;9.124;2022-09-09T08:33:11;8.77;;;2.33;;
49153;SDS011;49455;52.252;9.124;2022-09-09T08:38:11;6.03;;;2.45;;
49153;SDS011;49455;52.252;9.124;2022-09-09T08:43:13;5.38;;;2.35;;
49153;SDS011;49455;52.252;9.124;2022-09-09T08:48:21;6.63;;;2.08;;
49153;SDS011;49455;52.252;9.124;2022-09-09T08:53:42;5.78;;;2.42;;
49153;SDS011;49455;52.252;9.124;2022-09-09T08:58:48;7.65;;;2.13;;
49153;SDS011;49455;52.252;9.124;2022-09-09T09:14:21;6.20;;;2.20;;
49153;SDS011;49455;52.252;9.124;2022-09-09T09:19:24;5.25;;;2.03;;
49153;SDS011;49455;52.252;9.124;2022-09-09T09:29:52;5.85;;;2.00;;
49153;SDS011;49455;52.252;9.124;2022-09-09T09:34:57;9.65;;;2.08;;
49153;SDS011;49455;52.252;9.124;2022-09-09T09:40:11;7.33;;;2.67;;
49153;SDS011;49455;52.252;9.124;2022-09-09T09:45:16;4.82;;;2.10;;
49153;SDS011;49455;52.252;9.124;2022-09-09T09:50:25;6.95;;;1.88;;
49153;SDS011;49455;52.252;9.124;2022-09-09T09:55:27;6.60;;;2.30;;
49153;SDS011;49455;52.252;9.124;2022-09-09T10:00:30;7.97;;;2.15;;
49153;SDS011;49455;52.252;9.124;2022-09-09T10:05:38;4.82;;;1.80;;
49153;SDS011;49455;52.252;9.124;2022-09-09T10:16:06;4.13;;;1.67;;
49153;SDS011;49455;52.252;9.124;2022-09-09T10:26:47;7.60;;;1.98;;
49153;SDS011;49455;52.252;9.124;2022-09-09T10:49:28;5.13;;;1.38;;
49153;SDS011;49455;52.252;9.124;2022-09-09T10:54:19;6.50;;;1.67;;
49153;SDS011;49455;52.252;9.124;2022-09-09T10:59:28;3.88;;;1.38;;
49153;SDS011;49455;52.252;9.124;2022-09-09T11:04:40;4.35;;;1.25;;
49153;SDS011;49455;52.252;9.124;2022-09-09T11:09:47;3.80;;;1.20;;
49153;SDS011;49455;52.252;9.124;2022-09-09T11:14:57;5.00;;;1.38;;
49153;SDS011;49455;52.252;9.124;2022-09-09T11:20:05;5.80;;;1.08;;
49153;SDS011;49455;52.252;9.124;2022-09-09T11:25:17;5.22;;;1.30;;
49153;SDS011;49455;52.252;9.124;2022-09-09T11:30:24;3.45;;;1.17;;
49153;SDS011;49455;52.252;9.124;2022-09-09T11:40:38;4.35;;;1.23;;
49153;SDS011;49455;52.252;9.124;2022-09-09T11:45:40;4.22;;;1.40;;
49153;SDS011;49455;52.252;9.124;2022-09-09T11:50:42;5.38;;;1.60;;
49153;SDS011;49455;52.252;9.124;2022-09-09T11:55:42;4.03;;;1.37;;
49153;SDS011;49455;52.252;9.124;2022-09-09T12:00:47;3.50;;;1.43;;
49153;SDS011;49455;52.252;9.124;2022-09-09T12:05:48;5.03;;;1.42;;
49153;SDS011;49455;52.252;9.124;2022-09-09T12:10:55;3.30;;;1.52;;
49153;SDS011;49455;52.252;9.124;2022-09-09T12:15:57;3.88;;;1.35;;
49153;SDS011;49455;52.252;9.124;2022-09-09T12:42:39;3.22;;;1.15;;
49153;SDS011;49455;52.252;9.124;2022-09-09T12:53:10;4.53;;;1.60;;
49153;SDS011;49455;52.252;9.124;2022-09-09T12:58:23;7.80;;;1.80;;
49153;SDS011;49455;52.252;9.124;2022-09-09T13:03:24;4.37;;;1.40;;
49153;SDS011;49455;52.252;9.124;2022-09-09T13:08:24;4.30;;;1.40;;
49153;SDS011;49455;52.252;9.124;2022-09-09T13:18:41;2.25;;;1.17;;
49153;SDS011;49455;52.252;9.124;2022-09-09T13:23:41;5.50;;;1.40;;
49153;SDS011;49455;52.252;9.124;2022-09-09T13:28:42;2.93;;;1.40;;
49153;SDS011;49455;52.252;9.124;2022-09-09T13:33:42;4.47;;;0.97;;
49153;SDS011;49455;52.252;9.124;2022-09-09T13:43:54;2.22;;;1.25;;
49153;SDS011;49455;52.252;9.124;2022-09-09T13:48:55;4.17;;;1.50;;
49153;SDS011;49455;52.252;9.124;2022-09-09T13:54:19;5.05;;;1.30;;
49153;SDS011;49455;52.252;9.124;2022-09-09T13:59:20;3.15;;;1.17;;
49153;SDS011;49455;52.252;9.124;2022-09-09T14:04:20;4.40;;;1.30;;
49153;SDS011;49455;52.252;9.124;2022-09-09T14:09:21;3.10;;;1.17;;
49153;SDS011;49455;52.252;9.124;2022-09-09T14:14:21;3.87;;;1.30;;
49153;SDS011;49455;52.252;9.124;2022-09-09T14:19:22;2.83;;;1.10;;
49153;SDS011;49455;52.252;9.124;2022-09-09T14:24:22;2.73;;;1.33;;
49153;SDS011;49455;52.252;9.124;2022-09-09T14:29:23;4.00;;;1.50;;
49153;SDS011;49455;52.252;9.124;2022-09-09T14:34:23;4.43;;;1.53;;
49153;SDS011;49455;52.252;9.124;2022-09-09T14:39:23;3.83;;;1.80;;
49153;SDS011;49455;52.252;9.124;2022-09-09T14:44:24;4.53;;;1.20;;
49153;SDS011;49455;52.252;9.124;2022-09-09T14:49:24;3.90;;;1.60;;
49153;SDS011;49455;52.252;9.124;2022-09-09T14:54:25;2.27;;;1.00;;
49153;SDS011;49455;52.252;9.124;2022-09-09T14:59:25;5.07;;;1.00;;
49153;SDS011;49455;52.252;9.124;2022-09-09T15:04:25;4.33;;;1.20;;
49153;SDS011;49455;52.252;9.124;2022-09-09T15:09:26;4.87;;;1.17;;
49153;SDS011;49455;52.252;9.124;2022-09-09T15:14:26;4.97;;;1.43;;
49153;SDS011;49455;52.252;9.124;2022-09-09T15:19:27;2.93;;;1.57;;
49153;SDS011;49455;52.252;9.124;2022-09-09T15:24:27;3.07;;;1.43;;
49153;SDS011;49455;52.252;9.124;2022-09-09T15:29:27;5.00;;;1.10;;
49153;SDS011;49455;52.252;9.124;2022-09-09T15:34:28;3.30;;;1.50;;
49153;SDS011;49455;52.252;9.124;2022-09-09T15:39:28;4.30;;;1.33;;
49153;SDS011;49455;52.252;9.124;2022-09-09T15:44:29;9.27;;;2.40;;
49153;SDS011;49455;52.252;9.124;2022-09-09T15:49:29;2.43;;;0.80;;
49153;SDS011;49455;52.252;9.124;2022-09-09T15:54:34;2.97;;;1.07;;
49153;SDS011;49455;52.252;9.124;2022-09-09T15:59:35;2.05;;;1.05;;
49153;SDS011;49455;52.252;9.124;2022-09-09T16:04:36;6.50;;;1.40;;
49153;SDS011;49455;52.252;9.124;2022-09-09T16:09:36;4.77;;;1.30;;
49153;SDS011;49455;52.252;9.124;2022-09-09T16:14:37;2.53;;;1.30;;
49153;SDS011;49455;52.252;9.124;2022-09-09T16:19:37;2.73;;;1.07;;
49153;SDS011;49455;52.252;9.124;2022-09-09T16:24:38;4.70;;;1.20;;
49153;SDS011;49455;52.252;9.124;2022-09-09T16:29:38;3.73;;;1.20;;
49153;SDS011;49455;52.252;9.124;2022-09-09T16:34:38;2.77;;;1.07;;
49153;SDS011;49455;52.252;9.124;2022-09-09T16:39:39;3.87;;;1.07;;
49153;SDS011;49455;52.252;9.124;2022-09-09T16:44:39;6.33;;;1.40;;
49153;SDS011;49455;52.252;9.124;2022-09-09T16:49:39;5.20;;;1.50;;
49153;SDS011;49455;52.252;9.124;2022-09-09T16:54:40;2.47;;;1.20;;
49153;SDS011;49455;52.252;9.124;2022-09-09T16:59:40;2.57;;;0.90;;
49153;SDS011;49455;52.252;9.124;2022-09-09T17:04:41;2.60;;;1.10;;
49153;SDS011;49455;52.252;9.124;2022-09-09T17:09:41;2.57;;;1.20;;
49153;SDS011;49455;52.252;9.124;2022-09-09T17:14:41;2.90;;;1.13;;
49153;SDS011;49455;52.252;9.124;2022-09-09T17:19:42;3.80;;;1.20;;
49153;SDS011;49455;52.252;9.124;2022-09-09T17:24:42;4.03;;;1.30;;
49153;SDS011;49455;52.252;9.124;2022-09-09T17:29:43;3.23;;;1.20;;
49153;SDS011;49455;52.252;9.124;2022-09-09T17:34:43;5.77;;;1.60;;
49153;SDS011;49455;52.252;9.124;2022-09-09T17:39:44;2.57;;;1.13;;
49153;SDS011;49455;52.252;9.124;2022-09-09T17:44:44;3.60;;;1.40;;
49153;SDS011;49455;52.252;9.124;2022-09-09T17:49:44;6.53;;;1.40;;
49153;SDS011;49455;52.252;9.124;2022-09-09T17:54:45;3.47;;;1.27;;
49153;SDS011;49455;52.252;9.124;2022-09-09T17:59:45;1.73;;;0.87;;
49153;SDS011;49455;52.252;9.124;2022-09-09T18:04:46;3.13;;;1.23;;
49153;SDS011;49455;52.252;9.124;2022-09-09T18:09:46;2.60;;;1.00;;
49153;SDS011;49455;52.252;9.124;2022-09-09T18:14:46;4.20;;;1.30;;
49153;SDS011;49455;52.252;9.124;2022-09-09T18:19:47;4.50;;;1.77;;
49153;SDS011;49455;52.252;9.124;2022-09-09T18:24:48;3.30;;;1.30;;
49153;SDS011;49455;52.252;9.124;2022-09-09T18:29:48;4.97;;;1.77;;
49153;SDS011;49455;52.252;9.124;2022-09-09T18:34:49;2.67;;;1.37;;
49153;SDS011;49455;52.252;9.124;2022-09-09T18:39:49;2.75;;;1.20;;
49153;SDS011;49455;52.252;9.124;2022-09-09T18:44:49;2.45;;;1.20;;
49153;SDS011;49455;52.252;9.124;2022-09-09T18:49:53;2.85;;;1.08;;
49153;SDS011;49455;52.252;9.124;2022-09-09T18:54:53;6.50;;;1.00;;
49153;SDS011;49455;52.252;9.124;2022-09-09T18:59:53;2.77;;;0.83;;
49153;SDS011;49455;52.252;9.124;2022-09-09T19:04:54;3.23;;;1.17;;
49153;SDS011;49455;52.252;9.124;2022-09-09T19:09:54;2.73;;;0.90;;
49153;SDS011;49455;52.252;9.124;2022-09-09T19:14:55;2.00;;;1.10;;
49153;SDS011;49455;52.252;9.124;2022-09-09T19:19:55;2.33;;;1.30;;
49153;SDS011;49455;52.252;9.124;2022-09-09T19:24:56;3.07;;;1.00;;
49153;SDS011;49455;52.252;9.124;2022-09-09T19:29:56;2.63;;;0.90;;
49153;SDS011;49455;52.252;9.124;2022-09-09T19:34:56;2.70;;;1.30;;
49153;SDS011;49455;52.252;9.124;2022-09-09T19:39:57;2.55;;;0.82;;
49153;SDS011;49455;52.252;9.124;2022-09-09T19:44:57;1.33;;;0.90;;
49153;SDS011;49455;52.252;9.124;2022-09-09T19:49:58;1.90;;;0.88;;
49153;SDS011;49455;52.252;9.124;2022-09-09T19:54:58;2.67;;;1.08;;
49153;SDS011;49455;52.252;9.124;2022-09-09T19:59:58;2.95;;;1.02;;
49153;SDS011;49455;52.252;9.124;2022-09-09T20:04:59;3.15;;;1.10;;
49153;SDS011;49455;52.252;9.124;2022-09-09T20:09:59;2.47;;;1.00;;
49153;SDS011;49455;52.252;9.124;2022-09-09T20:15:02;4.47;;;1.15;;
49153;SDS011;49455;52.252;9.124;2022-09-09T20:20:03;2.55;;;1.10;;
49153;SDS011;49455;52.252;9.124;2022-09-09T20:25:04;3.50;;;1.25;;
49153;SDS011;49455;52.252;9.124;2022-09-09T20:30:05;3.25;;;1.25;;
49153;SDS011;49455;52.252;9.124;2022-09-09T20:35:06;3.83;;;1.23;;
49153;SDS011;49455;52.252;9.124;2022-09-09T20:40:06;2.15;;;1.05;;
49153;SDS011;49455;52.252;9.124;2022-09-09T20:45:07;1.70;;;1.00;;
49153;SDS011;49455;52.252;9.124;2022-09-09T20:50:08;2.90;;;1.15;;
49153;SDS011;49455;52.252;9.124;2022-09-09T20:55:08;3.92;;;1.20;;
49153;SDS011;49455;52.252;9.124;2022-09-09T21:00:09;3.42;;;1.40;;
49153;SDS011;49455;52.252;9.124;2022-09-09T21:05:10;3.47;;;1.80;;
49153;SDS011;49455;52.252;9.124;2022-09-09T21:10:10;3.20;;;1.75;;
49153;SDS011;49455;52.252;9.124;2022-09-09T21:15:11;3.33;;;1.67;;
49153;SDS011;49455;52.252;9.124;2022-09-09T21:20:11;4.45;;;1.30;;
49153;SDS011;49455;52.252;9.124;2022-09-09T21:25:11;3.20;;;1.63;;
49153;SDS011;49455;52.252;9.124;2022-09-09T21:30:12;6.00;;;1.52;;
49153;SDS011;49455;52.252;9.124;2022-09-09T21:35:13;2.70;;;1.63;;
49153;SDS011;49455;52.252;9.124;2022-09-09T21:40:13;3.88;;;1.70;;
49153;SDS011;49455;52.252;9.124;2022-09-09T21:45:14;3.50;;;1.48;;
49153;SDS011;49455;52.252;9.124;2022-09-09T21:50:14;5.03;;;1.42;;
49153;SDS011;49455;52.252;9.124;2022-09-09T21:55:15;3.88;;;1.20;;
49153;SDS011;49455;52.252;9.124;2022-09-09T22:00:15;4.30;;;1.38;;
49153;SDS011;49455;52.252;9.124;2022-09-09T22:05:16;3.13;;;1.40;;
49153;SDS011;49455;52.252;9.124;2022-09-09T22:10:17;2.35;;;1.38;;
49153;SDS011;49455;52.252;9.124;2022-09-09T22:15:17;5.78;;;1.58;;
49153;SDS011;49455;52.252;9.124;2022-09-09T22:20:18;2.15;;;1.40;;
49153;SDS011;49455;52.252;9.124;2022-09-09T22:25:18;7.45;;;2.00;;
49153;SDS011;49455;52.252;9.124;2022-09-09T22:30:19;7.32;;;1.92;;
49153;SDS011;49455;52.252;9.124;2022-09-09T22:35:19;4.38;;;1.50;;
49153;SDS011;49455;52.252;9.124;2022-09-09T22:40:20;3.88;;;1.40;;
49153;SDS011;49455;52.252;9.124;2022-09-09T22:45:20;4.28;;;1.42;;
49153;SDS011;49455;52.252;9.124;2022-09-09T22:50:21;2.58;;;1.20;;
49153;SDS011;49455;52.252;9.124;2022-09-09T22:55:21;4.18;;;1.58;;
49153;SDS011;49455;52.252;9.124;2022-09-09T23:00:22;5.32;;;1.70;;
49153;SDS011;49455;52.252;9.124;2022-09-09T23:05:24;4.68;;;1.58;;
49153;SDS011;49455;52.252;9.124;2022-09-09T23:10:24;3.67;;;1.45;;
